Time;durP1;ratioP1;P1;durP2;ratioP2;P2;SDS_P1;SDS_P2;PMS_P1;PMS_P2;Temp;Humidity;BMP_temperature;BMP_pressure;BME280_temperature;BME280_humidity;BME280_pressure;Samples;Min_cycle;Max_cycle;Signal;HPM_P1;HPM_P2
2022/05/07 00:00:41;;;;;;;8.40;6.78;;;;;;;21.07;32.51;101901.78;5051747;28;20056;-72
2022/05/07 00:03:10;;;;;;;8.77;6.93;;;;;;;21.03;32.87;101902.22;5033955;28;20395;-72
2022/05/07 00:05:37;;;;;;;9.57;7.32;;;;;;;21.00;32.72;101891.47;5053157;28;20052;-72
2022/05/07 00:08:05;;;;;;;9.65;6.97;;;;;;;20.97;32.90;101892.63;5050118;28;20560;-72
2022/05/07 00:10:31;;;;;;;9.77;7.07;;;;;;;20.94;32.91;101890.16;5034708;28;20052;-71
2022/05/07 00:12:58;;;;;;;9.70;7.15;;;;;;;20.93;33.06;101895.81;5034188;28;20080;-71
2022/05/07 00:15:25;;;;;;;10.07;7.20;;;;;;;20.90;32.69;101891.47;5051271;28;20091;-72
2022/05/07 00:18:05;;;;;;;9.15;6.82;;;;;;;20.88;32.83;101879.69;5033688;28;20049;-72
2022/05/07 00:20:34;;;;;;;8.18;7.05;;;;;;;20.86;33.00;101884.47;5051096;28;20139;-72
2022/05/07 00:23:01;;;;;;;9.43;7.43;;;;;;;20.84;32.59;101887.38;5049761;28;20099;-72
2022/05/07 00:25:29;;;;;;;9.05;7.78;;;;;;;20.84;32.77;101883.72;5034983;28;20057;-72
2022/05/07 00:27:55;;;;;;;9.88;6.82;;;;;;;20.81;32.82;101884.91;5044755;28;20052;-72
2022/05/07 00:30:22;;;;;;;9.45;7.38;;;;;;;20.79;33.40;101881.41;5035114;28;20053;-73
2022/05/07 00:32:52;;;;;;;8.52;6.93;;;;;;;20.76;32.96;101889.97;5033332;28;20056;-72
2022/05/07 00:35:18;;;;;;;11.23;7.55;;;;;;;20.72;32.95;101884.91;5050969;28;20060;-72
2022/05/07 00:37:45;;;;;;;9.40;7.43;;;;;;;20.68;33.04;101878.78;5033228;28;20048;-73
2022/05/07 00:40:12;;;;;;;8.38;7.07;;;;;;;20.66;33.16;101880.84;5051232;28;20550;-72
2022/05/07 00:42:39;;;;;;;8.02;6.63;;;;;;;20.63;33.64;101883.00;5033131;28;20540;-72
2022/05/07 00:45:06;;;;;;;9.57;6.97;;;;;;;20.61;33.88;101883.13;5034824;28;20417;-72
2022/05/07 00:47:34;;;;;;;9.85;6.80;;;;;;;20.58;33.74;101888.94;5032968;28;20037;-72
2022/05/07 00:52:48;;;;;;;8.60;7.00;;;;;;;20.49;33.55;101874.13;5050507;28;20060;-72
2022/05/07 00:55:16;;;;;;;10.02;7.50;;;;;;;20.47;34.13;101870.63;5050509;28;20056;-72
2022/05/07 00:57:42;;;;;;;9.52;7.35;;;;;;;20.42;33.97;101878.44;5032824;28;20472;-71
2022/05/07 01:00:10;;;;;;;10.23;7.53;;;;;;;20.42;33.93;101881.19;5050619;28;20230;-71
2022/05/07 01:02:37;;;;;;;9.95;7.70;;;;;;;20.38;33.90;101873.34;5049151;28;20494;-71
2022/05/07 01:05:08;;;;;;;9.88;7.55;;;;;;;20.38;34.46;101873.34;5050182;28;20139;-72
2022/05/07 01:07:34;;;;;;;10.30;7.85;;;;;;;20.32;34.35;101866.50;5032844;28;20048;-71
2022/05/07 01:10:03;;;;;;;9.45;8.07;;;;;;;20.32;34.09;101869.25;5050898;28;20070;-71
2022/05/07 01:12:30;;;;;;;12.23;8.18;;;;;;;20.29;33.92;101865.88;5049289;28;20340;-71
2022/05/07 01:14:59;;;;;;;11.02;7.90;;;;;;;20.28;33.74;101866.91;5050210;28;20107;-72
2022/05/07 01:17:25;;;;;;;9.20;7.05;;;;;;;20.25;33.98;101864.44;5032971;28;20049;-72
2022/05/07 01:19:53;;;;;;;9.35;7.85;;;;;;;20.23;34.40;101860.94;5050180;28;20094;-72
2022/05/07 01:22:22;;;;;;;10.13;7.70;;;;;;;20.19;33.96;101854.81;5048882;28;20088;-72
2022/05/07 01:24:49;;;;;;;9.00;7.35;;;;;;;20.17;34.50;101858.75;5049997;28;20122;-72
2022/05/07 01:27:15;;;;;;;11.18;7.63;;;;;;;20.14;34.36;101860.78;5048703;28;20090;-71
2022/05/07 01:29:42;;;;;;;9.30;7.40;;;;;;;20.10;34.37;101861.19;5049725;28;20099;-71
2022/05/07 01:32:09;;;;;;;10.07;7.55;;;;;;;20.08;34.44;101864.09;5048438;28;20052;-71
2022/05/07 01:34:36;;;;;;;10.52;8.30;;;;;;;20.06;34.66;101866.13;5033556;28;20053;-71
2022/05/07 01:37:03;;;;;;;10.25;7.82;;;;;;;20.04;34.46;101858.97;5032640;28;20777;-71
2022/05/07 01:39:30;;;;;;;11.57;8.10;;;;;;;20.02;34.68;101861.88;5050064;28;20053;-71
2022/05/07 01:41:57;;;;;;;10.88;8.23;;;;;;;19.99;35.05;101851.16;5049052;28;20056;-72
2022/05/07 01:44:24;;;;;;;9.77;8.00;;;;;;;19.97;34.88;101855.91;5047933;28;20098;-72
2022/05/07 01:49:35;;;;;;;8.50;7.10;;;;;;;19.90;34.52;101857.50;5051152;28;20045;-72
2022/05/07 01:52:02;;;;;;;10.25;7.55;;;;;;;19.89;34.74;101865.88;5032186;28;20148;-72
2022/05/07 01:54:29;;;;;;;9.43;7.65;;;;;;;19.86;34.98;101863.41;5033473;28;20095;-72
2022/05/07 01:56:55;;;;;;;9.25;7.43;;;;;;;19.84;34.83;101858.06;5048902;28;20080;-72
2022/05/07 01:59:23;;;;;;;10.38;8.25;;;;;;;19.83;34.91;101855.44;5049341;28;20049;-72
2022/05/07 02:01:49;;;;;;;11.05;8.35;;;;;;;19.80;35.23;101856.56;5064377;28;20076;-72
2022/05/07 02:04:16;;;;;;;11.25;8.98;;;;;;;19.79;34.83;101853.94;5049892;28;20111;-72
2022/05/07 02:06:42;;;;;;;10.13;8.13;;;;;;;19.76;35.09;101850.44;5032053;28;20107;-72
2022/05/07 02:09:10;;;;;;;9.77;7.85;;;;;;;19.75;35.00;101851.47;5052649;28;20040;-73
2022/05/07 02:11:36;;;;;;;11.45;8.02;;;;;;;19.72;35.12;101846.22;5068312;28;20079;-72
2022/05/07 02:14:03;;;;;;;10.02;8.18;;;;;;;19.71;34.73;101843.59;5069293;28;20048;-72
2022/05/07 02:16:31;;;;;;;10.95;8.40;;;;;;;19.69;35.07;101843.75;5085493;28;20097;-72
2022/05/07 02:18:58;;;;;;;11.48;8.70;;;;;;;19.66;35.12;101846.78;5086136;28;20052;-72
2022/05/07 02:21:25;;;;;;;11.23;8.70;;;;;;;19.63;35.34;101848.94;5067845;28;20044;-72
2022/05/07 02:23:52;;;;;;;12.95;9.27;;;;;;;19.60;35.14;101849.22;5086110;28;20048;-73
2022/05/07 02:26:18;;;;;;;10.98;8.18;;;;;;;19.56;35.38;101851.38;5068861;28;20721;-72
2022/05/07 02:28:45;;;;;;;12.95;9.00;;;;;;;19.53;35.26;101854.38;5068948;28;20280;-72
2022/05/07 02:31:11;;;;;;;10.60;8.38;;;;;;;19.49;35.08;101849.28;5067974;28;20102;-72
2022/05/07 02:33:38;;;;;;;10.43;8.95;;;;;;;19.45;35.19;101848.66;5069379;28;20560;-72
2022/05/07 02:36:05;;;;;;;12.10;8.85;;;;;;;19.43;35.39;101847.06;5068986;28;20098;-72
2022/05/07 02:38:31;;;;;;;11.98;9.20;;;;;;;19.41;35.49;101854.56;5064259;28;20110;-72
2022/05/07 02:43:43;;;;;;;12.05;8.38;;;;;;;19.36;35.39;101858.59;5049861;28;20061;-72
2022/05/07 02:46:10;;;;;;;10.25;8.93;;;;;;;19.37;35.56;101862.22;5064512;28;20095;-72
2022/05/07 02:48:37;;;;;;;10.82;9.18;;;;;;;19.37;35.59;101859.47;5065470;28;20131;-72
2022/05/07 02:51:04;;;;;;;12.70;9.68;;;;;;;19.36;35.82;101850.34;5065609;28;20057;-72
2022/05/07 02:53:30;;;;;;;11.50;9.25;;;;;;;19.37;35.73;101856.72;5064639;28;20407;-73
2022/05/07 02:55:57;;;;;;;11.00;9.35;;;;;;;19.37;35.46;101853.97;5064739;28;20045;-72
2022/05/07 02:58:24;;;;;;;11.52;9.40;;;;;;;19.36;35.37;101849.47;5063877;28;20045;-72
2022/05/07 03:00:53;;;;;;;11.50;9.27;;;;;;;19.37;35.51;101848.44;5065389;28;20056;-72
2022/05/07 03:03:19;;;;;;;12.38;9.38;;;;;;;19.34;35.43;101851.50;5047363;28;20057;-72
2022/05/07 03:05:49;;;;;;;11.35;8.95;;;;;;;19.32;35.55;101854.38;5064423;28;20049;-72
2022/05/07 03:08:15;;;;;;;11.82;8.88;;;;;;;19.30;35.46;101847.25;5064304;28;20209;-72
2022/05/07 03:10:42;;;;;;;12.05;9.20;;;;;;;19.29;35.81;101842.75;5048595;28;20102;-72
2022/05/07 03:13:08;;;;;;;12.18;10.00;;;;;;;19.28;35.80;101852.00;5063815;28;20045;-72
2022/05/07 03:15:35;;;;;;;12.23;9.75;;;;;;;19.26;35.68;101851.31;5048549;28;20103;-72
2022/05/07 03:18:02;;;;;;;14.32;10.02;;;;;;;19.24;35.76;101845.91;5064198;28;20055;-72
2022/05/07 03:20:29;;;;;;;13.40;10.70;;;;;;;19.22;35.69;101844.28;5048850;28;20060;-72
2022/05/07 03:22:55;;;;;;;13.38;11.05;;;;;;;19.18;35.41;101846.47;5047060;28;20045;-73
2022/05/07 03:25:22;;;;;;;12.43;10.30;;;;;;;19.16;35.72;101839.34;5049478;28;20053;-72
2022/05/07 03:27:48;;;;;;;13.48;10.60;;;;;;;19.14;35.58;101841.34;5048674;28;20075;-72
2022/05/07 03:30:15;;;;;;;13.65;10.82;;;;;;;19.10;35.66;101849.00;5048432;28;20041;-72
2022/05/07 03:32:42;;;;;;;13.35;10.43;;;;;;;19.09;35.99;101846.38;5048477;28;20456;-72
2022/05/07 03:35:08;;;;;;;11.75;10.52;;;;;;;19.06;35.76;101855.78;5048460;28;20057;-72
2022/05/07 03:37:35;;;;;;;12.10;10.35;;;;;;;19.05;35.98;101856.78;5047362;28;20045;-72
2022/05/07 03:40:02;;;;;;;12.73;10.65;;;;;;;19.04;36.27;101845.91;5047992;28;20098;-72
2022/05/07 03:42:33;;;;;;;14.77;11.57;;;;;;;19.02;35.93;101840.56;5046777;28;20049;-72
2022/05/07 03:45:01;;;;;;;13.93;11.23;;;;;;;19.02;35.98;101847.94;5048465;28;20367;-72
2022/05/07 03:47:27;;;;;;;12.02;10.27;;;;;;;18.99;35.93;101847.19;5047196;28;20041;-72
2022/05/07 03:49:54;;;;;;;14.50;10.88;;;;;;;18.98;36.24;101842.69;5048990;28;20045;-72
2022/05/07 03:55:06;;;;;;;14.05;10.50;;;;;;;18.93;35.93;101844.97;5049516;28;20075;-72
2022/05/07 03:57:33;;;;;;;13.30;10.43;;;;;;;18.92;36.18;101840.47;5047387;28;20048;-72
2022/05/07 04:00:00;;;;;;;14.50;11.35;;;;;;;18.91;36.38;101840.59;5048034;28;20460;-72
2022/05/07 04:02:32;;;;;;;13.95;11.48;;;;;;;18.89;36.31;101842.59;5046970;28;20056;-72
2022/05/07 04:04:58;;;;;;;14.95;11.80;;;;;;;18.87;35.99;101847.34;5048233;28;20053;-72
2022/05/07 04:07:25;;;;;;;13.55;11.88;;;;;;;18.86;36.35;101846.47;5047108;28;20049;-72
2022/05/07 04:09:54;;;;;;;14.95;12.07;;;;;;;18.85;35.99;101850.25;5048815;28;20470;-72
2022/05/07 04:12:21;;;;;;;14.70;11.82;;;;;;;18.84;36.20;101854.00;5049866;28;20061;-72
2022/05/07 04:14:48;;;;;;;14.88;11.90;;;;;;;18.85;36.23;101854.88;5052710;28;20048;-72
2022/05/07 04:17:15;;;;;;;15.02;12.27;;;;;;;18.83;36.33;101854.13;5050096;28;20044;-72
2022/05/07 04:19:42;;;;;;;14.88;12.85;;;;;;;18.83;36.26;101845.88;5052024;28;20082;-72
2022/05/07 04:22:08;;;;;;;16.80;13.30;;;;;;;18.82;36.62;101849.63;5050092;28;20083;-72
2022/05/07 04:24:36;;;;;;;16.23;12.57;;;;;;;18.81;36.60;101850.63;5051651;28;20057;-72
2022/05/07 04:27:03;;;;;;;14.18;11.93;;;;;;;18.80;36.13;101855.25;5050557;28;20140;-72
2022/05/07 04:29:30;;;;;;;14.52;12.23;;;;;;;18.79;36.64;101859.03;5050850;28;20068;-73
2022/05/07 04:31:57;;;;;;;14.85;12.27;;;;;;;18.78;36.53;101861.91;5050121;28;20060;-72
2022/05/07 04:34:26;;;;;;;15.52;12.57;;;;;;;18.78;36.42;101856.38;5051390;28;20044;-72
2022/05/07 04:36:53;;;;;;;15.82;12.65;;;;;;;18.76;36.27;101861.19;5050671;28;20489;-72
2022/05/07 04:39:20;;;;;;;15.13;12.63;;;;;;;18.75;36.56;101860.31;5051397;28;20048;-72
2022/05/07 04:41:47;;;;;;;14.85;12.48;;;;;;;18.74;36.71;101864.06;5050194;28;20049;-72
2022/05/07 04:44:13;;;;;;;15.05;12.50;;;;;;;18.74;36.47;101863.19;5051105;28;20106;-72
2022/05/07 04:46:40;;;;;;;15.30;12.88;;;;;;;18.73;36.88;101873.31;5049868;28;20112;-72
2022/05/07 04:49:07;;;;;;;15.50;12.73;;;;;;;18.74;36.50;101871.44;5051309;28;20049;-72
2022/05/07 04:51:33;;;;;;;16.25;13.30;;;;;;;18.73;36.87;101876.06;5049842;28;20129;-72
2022/05/07 04:54:07;;;;;;;16.00;13.00;;;;;;;18.72;36.69;101879.81;5051353;28;20076;-73
2022/05/07 04:56:34;;;;;;;15.60;13.43;;;;;;;18.75;36.56;101875.94;5049967;28;20064;-72
2022/05/07 04:59:01;;;;;;;16.30;13.13;;;;;;;18.76;36.78;101870.31;5050833;28;20049;-72
2022/05/07 05:01:28;;;;;;;15.52;13.10;;;;;;;18.77;36.97;101869.31;5049665;28;20099;-72
2022/05/07 05:03:55;;;;;;;18.42;14.07;;;;;;;18.79;36.99;101866.41;5051120;28;20076;-72
2022/05/07 05:06:21;;;;;;;17.13;12.95;;;;;;;18.80;37.01;101866.28;5049956;28;20049;-72
2022/05/07 05:08:48;;;;;;;16.67;13.52;;;;;;;18.83;37.15;101876.16;5050291;28;20053;-72
2022/05/07 05:11:14;;;;;;;15.63;12.82;;;;;;;18.86;37.19;101876.75;5049817;28;20080;-72
2022/05/07 05:13:41;;;;;;;15.73;12.95;;;;;;;18.89;36.90;101887.50;5050874;28;20099;-72
2022/05/07 05:16:08;;;;;;;16.40;13.13;;;;;;;18.92;37.13;101883.63;5050050;28;20106;-72
2022/05/07 05:18:34;;;;;;;17.55;14.88;;;;;;;18.95;37.19;101886.97;5049940;28;20581;-72
2022/05/07 05:21:01;;;;;;;18.98;14.60;;;;;;;18.99;37.21;101890.34;5050093;28;20472;-72
2022/05/07 05:23:28;;;;;;;16.85;14.02;;;;;;;19.02;36.82;101895.59;5049662;28;20139;-72
2022/05/07 05:25:55;;;;;;;16.65;14.68;;;;;;;19.07;37.22;101897.94;5050484;28;20053;-72
2022/05/07 05:28:22;;;;;;;17.10;13.85;;;;;;;19.10;37.26;101898.56;5054241;28;20045;-72
2022/05/07 05:30:52;;;;;;;16.83;14.48;;;;;;;19.15;36.99;101901.78;5070714;28;20048;-72
2022/05/07 05:33:22;;;;;;;17.27;14.75;;;;;;;19.22;37.55;101900.25;5068830;28;20056;-72
2022/05/07 05:35:49;;;;;;;17.20;14.98;;;;;;;19.25;36.95;101902.75;5070616;28;20049;-72
2022/05/07 05:38:16;;;;;;;16.85;15.05;;;;;;;19.29;37.39;101900.56;5068985;28;20425;-72
2022/05/07 05:40:43;;;;;;;18.17;15.20;;;;;;;19.35;37.08;101905.56;5070132;28;20044;-72
2022/05/07 05:43:10;;;;;;;17.73;15.15;;;;;;;19.39;37.33;101904.28;5085557;28;20086;-72
2022/05/07 05:45:37;;;;;;;18.42;14.88;;;;;;;19.45;37.16;101900.97;5070340;28;20064;-72
2022/05/07 05:48:04;;;;;;;17.75;15.40;;;;;;;19.51;37.22;101911.53;5068613;28;20044;-72
2022/05/07 05:50:31;;;;;;;17.65;15.05;;;;;;;19.56;37.16;101900.09;5086521;28;20478;-72
2022/05/07 05:52:58;;;;;;;18.77;15.95;;;;;;;19.61;36.58;101906.91;5068587;28;20052;-72
2022/05/07 05:55:25;;;;;;;18.67;15.35;;;;;;;19.66;37.03;101903.78;5069747;28;20063;-72
2022/05/07 05:57:52;;;;;;;17.55;14.77;;;;;;;19.71;36.75;101898.72;5068242;28;20056;-72
2022/05/07 06:00:18;;;;;;;16.77;14.77;;;;;;;19.77;36.84;101890.78;5069899;28;20557;-72
2022/05/07 06:02:45;;;;;;;17.85;15.60;;;;;;;19.84;36.78;101895.75;5068518;28;20049;-72
2022/05/07 06:05:13;;;;;;;19.20;15.25;;;;;;;19.91;37.00;101899.72;5070727;28;20048;-72
2022/05/07 06:07:40;;;;;;;18.40;14.73;;;;;;;19.96;37.17;101901.03;5068401;28;20048;-72
2022/05/07 06:10:06;;;;;;;18.42;14.35;;;;;;;20.05;37.16;101902.09;5069614;28;20083;-72
2022/05/07 06:12:34;;;;;;;17.20;14.65;;;;;;;20.15;36.92;101908.53;5067900;28;20068;-72
2022/05/07 06:15:01;;;;;;;17.80;14.57;;;;;;;20.21;36.89;101901.56;5068865;28;20096;-72
2022/05/07 06:17:28;;;;;;;20.23;14.75;;;;;;;20.30;36.54;101904.38;5068343;28;20055;-72
2022/05/07 06:19:55;;;;;;;16.98;14.60;;;;;;;20.38;36.32;101911.97;5069538;28;20060;-72
2022/05/07 06:22:22;;;;;;;19.98;14.52;;;;;;;20.47;36.33;101911.13;5064033;28;20137;-75
2022/05/07 06:27:34;;;;;;;17.73;15.05;;;;;;;20.64;36.23;101912.34;5049432;28;20049;-71
2022/05/07 06:30:02;;;;;;;17.95;15.40;;;;;;;20.74;36.41;101916.88;5059101;28;20078;-74
2022/05/07 06:32:34;;;;;;;17.02;15.23;;;;;;;20.86;36.35;101910.19;5054749;28;20119;-71
2022/05/07 06:35:06;;;;;;;17.13;14.57;;;;;;;20.93;35.92;101916.00;5072017;28;20053;-72
2022/05/07 06:37:34;;;;;;;17.15;13.77;;;;;;;21.01;36.08;101913.38;5059958;28;20072;-74
2022/05/07 06:40:03;;;;;;;17.40;14.07;;;;;;;21.12;36.29;101912.38;5052245;28;20422;-72
2022/05/07 06:42:30;;;;;;;17.95;14.10;;;;;;;21.20;35.94;101915.31;5070518;28;20052;-72
2022/05/07 06:44:56;;;;;;;19.42;15.57;;;;;;;21.30;35.87;101916.22;5061761;28;20563;-70
2022/05/07 06:47:30;;;;;;;16.27;14.10;;;;;;;21.39;35.92;101915.31;5063058;28;20052;-72
2022/05/07 06:49:57;;;;;;;16.63;13.95;;;;;;;21.47;35.74;101915.47;5055633;28;20055;-71
2022/05/07 06:52:25;;;;;;;15.95;13.18;;;;;;;21.56;35.83;101916.47;5073901;28;20417;-71
2022/05/07 06:54:52;;;;;;;16.58;14.07;;;;;;;21.63;35.78;101917.63;5054950;28;20045;-71
2022/05/07 06:57:19;;;;;;;17.70;14.43;;;;;;;21.71;35.14;101925.16;5050810;28;20393;-71
2022/05/07 06:59:45;;;;;;;17.35;15.00;;;;;;;21.78;35.82;101918.88;5054093;28;20070;-71
2022/05/07 07:02:12;;;;;;;16.35;14.40;;;;;;;21.85;35.60;101911.72;5050554;28;20048;-71
2022/05/07 07:04:39;;;;;;;17.75;14.68;;;;;;;21.91;35.54;101916.66;5051710;28;20052;-71
2022/05/07 07:07:07;;;;;;;16.65;14.32;;;;;;;21.97;35.21;101921.63;5075441;28;20089;-72
2022/05/07 07:09:34;;;;;;;16.70;13.30;;;;;;;22.09;35.46;101925.06;5084306;28;20068;-71
2022/05/07 07:12:01;;;;;;;16.13;13.63;;;;;;;22.15;35.08;101927.25;5050769;28;20533;-72
2022/05/07 07:14:28;;;;;;;15.25;13.63;;;;;;;22.24;34.84;101928.22;5063294;28;20094;-72
2022/05/07 07:16:54;;;;;;;16.35;14.00;;;;;;;22.31;35.25;101919.19;5065629;28;20052;-71
2022/05/07 07:19:21;;;;;;;16.40;12.82;;;;;;;22.43;34.93;101930.91;5069994;28;20194;-71
2022/05/07 07:21:49;;;;;;;17.58;13.98;;;;;;;22.54;35.25;101925.16;5059599;28;20497;-71
2022/05/07 07:24:18;;;;;;;16.42;12.55;;;;;;;22.65;34.85;101919.41;5057714;28;20049;-71
2022/05/07 07:26:44;;;;;;;16.67;13.70;;;;;;;22.78;34.57;101919.06;5050742;28;20045;-71
2022/05/07 07:29:11;;;;;;;16.77;13.57;;;;;;;22.92;34.55;101917.66;5056258;28;20044;-71
2022/05/07 07:31:37;;;;;;;15.77;12.55;;;;;;;23.05;34.85;101913.50;5063300;28;20102;-71
2022/05/07 07:34:04;;;;;;;15.07;12.40;;;;;;;23.20;34.58;101915.69;5060384;28;20197;-71
2022/05/07 07:36:31;;;;;;;17.95;13.15;;;;;;;23.34;34.37;101918.78;5050761;28;20048;-71
2022/05/07 07:38:58;;;;;;;15.35;12.23;;;;;;;23.48;34.28;101922.88;5052557;28;20071;-71
2022/05/07 07:41:25;;;;;;;15.50;11.95;;;;;;;23.62;34.02;101919.56;5051066;28;20498;-71
2022/05/07 07:43:52;;;;;;;14.10;10.70;;;;;;;23.76;33.57;101921.75;5083818;28;20526;-71
2022/05/07 07:49:04;;;;;;;11.73;9.05;;;;;;;24.05;32.75;101921.41;5061928;28;20456;-71
2022/05/07 07:51:30;;;;;;;12.07;8.98;;;;;;;24.20;32.61;101924.47;5066217;28;20044;-70
2022/05/07 07:53:57;;;;;;;13.30;9.00;;;;;;;24.34;32.93;101923.00;5067688;28;20101;-70
2022/05/07 07:56:23;;;;;;;14.20;10.10;;;;;;;24.47;32.38;101915.94;5058193;28;20101;-71
2022/05/07 07:58:51;;;;;;;12.85;10.25;;;;;;;24.60;32.34;101926.56;5063166;28;20053;-71
2022/05/07 08:01:17;;;;;;;13.80;10.05;;;;;;;24.74;31.93;101925.06;5087287;28;20106;-71
2022/05/07 08:03:44;;;;;;;13.65;10.35;;;;;;;24.87;32.25;101917.13;5065540;28;20060;-70
2022/05/07 08:06:11;;;;;;;12.18;9.65;;;;;;;24.99;32.13;101916.66;5057627;28;20064;-71
2022/05/07 08:11:41;;;;;;;12.57;9.82;;;;;;;25.25;31.95;101919.28;5071733;28;20041;-71
2022/05/07 08:14:09;;;;;;;11.80;9.75;;;;;;;25.39;31.49;101920.50;5060947;28;20049;-70
2022/05/07 08:16:36;;;;;;;12.60;9.52;;;;;;;25.50;31.27;101916.50;5056086;28;20049;-70
2022/05/07 08:19:04;;;;;;;12.43;10.13;;;;;;;25.60;30.92;101922.81;5066052;28;20529;-71
2022/05/07 08:21:30;;;;;;;13.00;10.10;;;;;;;25.69;30.72;101924.53;5070059;28;20548;-71
2022/05/07 08:23:57;;;;;;;11.80;9.95;;;;;;;25.76;30.61;101920.88;5059142;28;20060;-72
2022/05/07 08:26:24;;;;;;;12.02;9.98;;;;;;;25.86;30.40;101926.22;5064943;28;20551;-72
2022/05/07 08:28:54;;;;;;;13.57;10.88;;;;;;;25.97;30.24;101927.78;5072829;28;20045;-72
2022/05/07 08:31:23;;;;;;;13.13;10.07;;;;;;;25.99;30.53;101923.78;5068039;28;20548;-73
2022/05/07 08:33:51;;;;;;;13.02;10.02;;;;;;;26.09;30.64;101937.53;5062582;28;20498;-72
2022/05/07 08:36:18;;;;;;;11.27;9.10;;;;;;;26.15;30.10;101929.31;5086038;28;20045;-72
2022/05/07 08:38:45;;;;;;;14.52;10.15;;;;;;;26.24;30.09;101926.50;5056518;28;20045;-72
2022/05/07 08:41:12;;;;;;;12.27;9.25;;;;;;;26.32;30.13;101926.50;5058738;28;20044;-70
2022/05/07 08:43:44;;;;;;;12.80;9.77;;;;;;;26.41;29.41;101925.44;5054074;28;20476;-71
2022/05/07 08:46:16;;;;;;;11.95;8.95;;;;;;;26.46;29.96;101925.75;5065578;28;20133;-71
2022/05/07 08:48:46;;;;;;;11.52;9.23;;;;;;;26.55;30.17;101923.81;5082294;28;20079;-72
2022/05/07 08:51:18;;;;;;;13.68;9.70;;;;;;;26.65;29.31;101924.47;5081700;28;20088;-71
2022/05/07 08:53:48;;;;;;;13.35;9.93;;;;;;;26.67;29.66;101925.16;5065544;28;20329;-71
2022/05/07 08:56:16;;;;;;;13.30;9.30;;;;;;;26.76;29.35;101916.56;5080123;28;20489;-71
2022/05/07 08:58:51;;;;;;;11.02;9.35;;;;;;;26.86;29.11;101925.56;5065493;28;20455;-71
2022/05/07 09:01:18;;;;;;;13.45;8.80;;;;;;;26.91;29.19;101925.06;5064498;28;20521;-71
2022/05/07 09:03:47;;;;;;;13.23;9.00;;;;;;;27.00;29.22;101923.94;5064282;28;20076;-73
2022/05/07 09:06:26;;;;;;;10.52;8.02;;;;;;;27.09;29.18;101917.28;5082816;28;20048;-73
2022/05/07 09:08:56;;;;;;;12.73;8.32;;;;;;;27.15;28.86;101915.66;5063008;28;20456;-71
2022/05/07 09:11:24;;;;;;;11.90;8.20;;;;;;;27.20;28.72;101924.31;5061835;28;20466;-71
2022/05/07 09:14:04;;;;;;;10.98;8.00;;;;;;;27.32;28.28;101916.41;5080143;28;20044;-71
2022/05/07 09:16:40;;;;;;;10.20;7.28;;;;;;;27.40;28.11;101919.13;5060470;28;20516;-72
2022/05/07 09:19:20;;;;;;;11.07;7.75;;;;;;;27.47;28.03;101923.75;5053732;28;20053;-72
2022/05/07 09:21:47;;;;;;;10.82;7.63;;;;;;;27.52;28.60;101917.59;5072305;28;20040;-72
2022/05/07 09:24:14;;;;;;;11.00;7.78;;;;;;;27.60;28.57;101912.00;5086867;28;20439;-72
2022/05/07 09:26:43;;;;;;;9.60;7.40;;;;;;;27.69;28.69;101916.44;5057333;28;20153;-72
2022/05/07 09:29:12;;;;;;;12.18;7.72;;;;;;;27.79;28.32;101908.69;5052919;28;20109;-72
2022/05/07 09:31:43;;;;;;;10.55;7.63;;;;;;;27.88;28.29;101912.25;5069804;28;20056;-72
2022/05/07 09:37:21;;;;;;;;;;;;;;;27.73;28.86;101914.16;5071208;28;20048;-72
2022/05/07 09:39:50;;;;;;;8.25;5.72;;;;;;;28.10;27.91;101908.50;5061072;28;20627;-72
2022/05/07 09:42:24;;;;;;;9.68;6.28;;;;;;;28.24;27.28;101910.50;5058850;28;20521;-72
2022/05/07 09:44:50;;;;;;;8.90;5.88;;;;;;;28.29;27.80;101898.72;5059332;28;20061;-72
2022/05/07 09:47:17;;;;;;;9.55;6.10;;;;;;;28.37;26.97;101905.09;5076417;28;20052;-72
2022/05/07 09:52:32;;;;;;;12.02;7.45;;;;;;;28.54;26.79;101900.16;5069328;28;20106;-72
2022/05/07 09:57:46;;;;;;;9.68;6.25;;;;;;;28.67;26.79;101894.72;5044463;28;20041;-72
2022/05/07 10:00:17;;;;;;;12.57;6.88;;;;;;;28.77;26.45;101898.13;5065776;28;20337;-72
2022/05/07 10:03:05;;;;;;;11.68;6.30;;;;;;;28.83;26.10;101890.84;5083668;28;20083;-72
2022/05/07 10:06:03;;;;;;;11.93;7.05;;;;;;;28.89;25.79;101901.28;5061792;28;20052;-72
2022/05/07 10:08:56;;;;;;;10.73;5.75;;;;;;;28.97;26.17;101897.50;5051644;28;20045;-72
2022/05/07 10:11:24;;;;;;;9.23;6.43;;;;;;;29.02;26.27;101897.75;5056463;28;20478;-72
2022/05/07 10:13:53;;;;;;;14.75;7.15;;;;;;;29.10;25.94;101894.81;5077052;28;20052;-72
2022/05/07 10:16:21;;;;;;;11.68;6.35;;;;;;;29.15;25.89;101898.75;5069115;28;20122;-72
2022/05/07 10:18:50;;;;;;;9.50;6.82;;;;;;;29.23;25.49;101902.50;5058781;28;20421;-72
2022/05/07 10:21:18;;;;;;;9.57;6.30;;;;;;;29.30;25.69;101895.03;5058819;28;20056;-72
2022/05/07 10:23:53;;;;;;;9.55;6.28;;;;;;;29.38;25.27;101890.22;5057953;28;20052;-71
2022/05/07 10:26:23;;;;;;;9.13;6.32;;;;;;;29.43;25.39;101890.47;5084991;28;20068;-72
2022/05/07 10:28:50;;;;;;;9.13;5.68;;;;;;;29.47;25.44;101888.13;5060592;28;20102;-72
2022/05/07 10:31:22;;;;;;;11.40;6.88;;;;;;;29.57;25.18;101888.63;5063442;28;20439;-71
2022/05/07 10:33:51;;;;;;;9.88;6.03;;;;;;;29.61;25.29;101880.72;5059652;28;20048;-72
2022/05/07 10:36:19;;;;;;;9.70;6.07;;;;;;;29.67;24.92;101877.97;5051143;28;20048;-72
2022/05/07 10:38:50;;;;;;;8.90;5.95;;;;;;;29.76;24.42;101875.88;5053935;28;20052;-72
2022/05/07 10:41:22;;;;;;;8.93;5.78;;;;;;;29.75;24.58;101871.34;5074938;28;20091;-71
2022/05/07 10:44:02;;;;;;;8.57;6.35;;;;;;;29.82;24.12;101875.91;5079280;28;20051;-71
2022/05/07 10:46:40;;;;;;;7.65;5.55;;;;;;;29.89;23.58;101879.66;5058325;28;20083;-72
2022/05/07 10:49:07;;;;;;;10.45;6.80;;;;;;;29.92;23.53;101869.09;5069847;28;20057;-71
2022/05/07 10:51:39;;;;;;;9.55;5.80;;;;;;;30.00;23.06;101869.81;5053502;28;20103;-72
2022/05/07 10:54:27;;;;;;;8.88;5.72;;;;;;;30.03;23.42;101872.22;5060308;28;20079;-71
2022/05/07 10:56:56;;;;;;;9.07;5.85;;;;;;;30.06;23.62;101863.41;5084376;28;20355;-72
2022/05/07 10:59:24;;;;;;;9.40;6.28;;;;;;;30.10;23.29;101861.94;5057087;28;20090;-72
2022/05/07 11:01:51;;;;;;;10.57;6.65;;;;;;;30.15;23.32;101869.69;5068840;28;20086;-72
2022/05/07 11:04:19;;;;;;;8.38;6.05;;;;;;;30.17;23.19;101860.03;5056558;28;20053;-72
2022/05/07 11:06:48;;;;;;;9.35;5.90;;;;;;;30.21;22.81;101864.16;5051058;28;20044;-72
2022/05/07 11:09:17;;;;;;;7.95;5.45;;;;;;;30.24;22.78;101858.13;5056092;28;20099;-72
2022/05/07 11:11:46;;;;;;;7.50;5.22;;;;;;;30.27;23.07;101863.31;5051595;28;20547;-72
2022/05/07 11:14:23;;;;;;;9.15;6.47;;;;;;;30.34;22.61;101854.06;5058496;28;20040;-72
2022/05/07 11:16:51;;;;;;;8.70;6.10;;;;;;;30.35;22.98;101853.88;5080512;28;20070;-72
2022/05/07 11:19:25;;;;;;;8.70;5.95;;;;;;;30.43;22.27;101848.09;5061407;28;20131;-72
2022/05/07 11:21:53;;;;;;;9.75;6.65;;;;;;;30.42;22.53;101849.16;5061155;28;20049;-72
2022/05/07 11:24:20;;;;;;;8.02;4.90;;;;;;;30.45;22.47;101859.97;5073625;28;20048;-72
2022/05/07 11:26:55;;;;;;;9.57;6.30;;;;;;;30.52;22.25;101852.47;5071162;28;20558;-72
2022/05/07 11:29:23;;;;;;;8.77;5.90;;;;;;;30.52;22.67;101841.25;5059669;28;20071;-72
2022/05/07 11:31:58;;;;;;;9.30;5.97;;;;;;;30.56;21.85;101845.34;5070588;28;20078;-71
2022/05/07 11:34:32;;;;;;;9.50;6.43;;;;;;;30.59;21.83;101850.56;5077745;28;20080;-72
2022/05/07 11:37:21;;;;;;;9.25;6.50;;;;;;;30.58;21.39;101853.56;5057631;28;20593;-72
2022/05/07 11:39:58;;;;;;;8.75;5.75;;;;;;;30.60;21.09;101845.81;5055575;28;20098;-72
2022/05/07 11:42:38;;;;;;;7.85;5.28;;;;;;;30.58;21.18;101840.41;5054744;28;20037;-72
2022/05/07 11:45:31;;;;;;;8.05;5.35;;;;;;;30.50;21.43;101837.75;5068864;28;20044;-72
2022/05/07 11:48:04;;;;;;;7.68;5.18;;;;;;;30.51;21.36;101827.44;5058465;28;20119;-72
2022/05/07 11:50:33;;;;;;;7.95;5.65;;;;;;;30.45;21.33;101829.13;5076272;28;20052;-71